Terminal Aerodrome Forecast
Issued by NWS Green Bay, WI

Home | Current Version | Previous Version | Graphics & Text | Print | Product List | Glossary On
Versions: 1 2 3 4 5 6 7 8 9 10 11 12 13 14 15 16 17 18 19 20 21 22 23 24
000
FTUS43 KGRB 302000 AAA
TAFGRB
TAF AMD
KGRB 302017Z 3020/0118 04010KT P6SM FEW035
     FM302300 04009KT P6SM SCT070
     FM010500 VRB03KT P6SM SKC
     FM011600 24005KT P6SM FEW040 SCT200=

USA.gov is the U.S. government's official web portal to all federal, state and local government web resources and services.